Aviation Digital Data Service (ADDS)

Output produced by METARs form (1131 UTC 19 February 2019)
found at http://www.aviationweather.gov/metar/data/
 
METAR text: LFBZ 191100Z AUTO 29006KT 260V330 9999 FEW013 12/08 Q1023 BECMG BKN011
Conditions at: LFBZ (BIARRITZ/ANGLET , FR) observed 1100 UTC 19 February 2019
Temperature: 12.0°C (54°F)
Dewpoint: 8.0°C (46°F) [RH = 76%]
Pressure (altimeter): 30.21 inches Hg (1023.0 mb)
Winds: from the WNW (290 degrees) at 7 MPH (6 knots; 3.1 m/s)
Visibility: 6 or more miles (10+ km)
Ceiling: at least 12,000 feet AGL
Clouds: few clouds at 1300 feet AGL
Weather: no significant weather observed at this time

METAR text: LFBZ 191030Z AUTO 28007KT 9999 BKN012 12/08 Q1023 NOSIG
Conditions at: LFBZ (BIARRITZ/ANGLET , FR) observed 1030 UTC 19 February 2019
Temperature: 12.0°C (54°F)
Dewpoint: 8.0°C (46°F) [RH = 76%]
Pressure (altimeter): 30.21 inches Hg (1023.0 mb)
Winds: from the W (280 degrees) at 8 MPH (7 knots; 3.6 m/s)
Visibility: 6 or more miles (10+ km)
Ceiling: 1200 feet AGL
Clouds: broken clouds at 1200 feet AGL
Weather: no significant weather observed at this time

METAR text: LFBZ 191000Z AUTO 27009KT 230V300 9999 OVC010 11/08 Q1023 NOSIG
Conditions at: LFBZ (BIARRITZ/ANGLET , FR) observed 1000 UTC 19 February 2019
Temperature: 11.0°C (52°F)
Dewpoint: 8.0°C (46°F) [RH = 82%]
Pressure (altimeter): 30.21 inches Hg (1023.0 mb)
Winds: from the W (270 degrees) at 10 MPH (9 knots; 4.6 m/s)
Visibility: 6 or more miles (10+ km)
Ceiling: 1000 feet AGL
Clouds: overcast cloud deck at 1000 feet AGL
Weather: no significant weather observed at this time

METAR text: LFBZ 190930Z AUTO 24005KT 190V310 9999 BKN008 11/09 Q1022 BECMG BKN011
Conditions at: LFBZ (BIARRITZ/ANGLET , FR) observed 0930 UTC 19 February 2019
Temperature: 11.0°C (52°F)
Dewpoint: 9.0°C (48°F) [RH = 87%]
Pressure (altimeter): 30.18 inches Hg (1022.0 mb)
Winds: from the WSW (240 degrees) at 6 MPH (5 knots; 2.6 m/s)
Visibility: 6 or more miles (10+ km)
Ceiling: 800 feet AGL
Clouds: broken clouds at 800 feet AGL
Weather: no significant weather observed at this time

METAR text: LFBZ 190900Z AUTO 26007KT 220V300 9999 OVC009 10/09 Q1022 BECMG BKN011
Conditions at: LFBZ (BIARRITZ/ANGLET , FR) observed 0900 UTC 19 February 2019
Temperature: 10.0°C (50°F)
Dewpoint: 9.0°C (48°F) [RH = 93%]
Pressure (altimeter): 30.18 inches Hg (1022.0 mb)
Winds: from the W (260 degrees) at 8 MPH (7 knots; 3.6 m/s)
Visibility: 6 or more miles (10+ km)
Ceiling: 900 feet AGL
Clouds: overcast cloud deck at 900 feet AGL
Weather: no significant weather observed at this time

METAR text: LFBZ 190830Z AUTO 26007KT 210V300 9999 BKN006 OVC010 10/09 Q1022 BECMG BKN011
Conditions at: LFBZ (BIARRITZ/ANGLET , FR) observed 0830 UTC 19 February 2019
Temperature: 10.0°C (50°F)
Dewpoint: 9.0°C (48°F) [RH = 93%]
Pressure (altimeter): 30.18 inches Hg (1022.0 mb)
Winds: from the W (260 degrees) at 8 MPH (7 knots; 3.6 m/s)
Visibility: 6 or more miles (10+ km)
Ceiling: 600 feet AGL
Clouds: broken clouds at 600 feet AGL
overcast cloud deck at 1000 feet AGL
Weather: no significant weather observed at this time

METAR text: LFBZ 190800Z AUTO 25005KT 210V290 9999 BKN008 OVC014 10/09 Q1022 BECMG BKN011
Conditions at: LFBZ (BIARRITZ/ANGLET , FR) observed 0800 UTC 19 February 2019
Temperature: 10.0°C (50°F)
Dewpoint: 9.0°C (48°F) [RH = 93%]
Pressure (altimeter): 30.18 inches Hg (1022.0 mb)
Winds: from the WSW (250 degrees) at 6 MPH (5 knots; 2.6 m/s)
Visibility: 6 or more miles (10+ km)
Ceiling: 800 feet AGL
Clouds: broken clouds at 800 feet AGL
overcast cloud deck at 1400 feet AGL
Weather: no significant weather observed at this time

METAR text: LFBZ 190730Z AUTO 26005KT 220V290 9999 -RADZ BKN010 OVC015 10/09 Q1022 TEMPO BKN004
Conditions at: LFBZ (BIARRITZ/ANGLET , FR) observed 0730 UTC 19 February 2019
Temperature: 10.0°C (50°F)
Dewpoint: 9.0°C (48°F) [RH = 93%]
Pressure (altimeter): 30.18 inches Hg (1022.0 mb)
Winds: from the W (260 degrees) at 6 MPH (5 knots; 2.6 m/s)
Visibility: 6 or more miles (10+ km)
Ceiling: 1000 feet AGL
Clouds: broken clouds at 1000 feet AGL
overcast cloud deck at 1500 feet AGL
Weather: -RA -DZ  (light rain, light drizzle)

METAR text: LFBZ 190700Z AUTO 23004KT 180V280 9999 OVC011 10/08 Q1021 BECMG BKN015
Conditions at: LFBZ (BIARRITZ/ANGLET , FR) observed 0700 UTC 19 February 2019
Temperature: 10.0°C (50°F)
Dewpoint: 8.0°C (46°F) [RH = 87%]
Pressure (altimeter): 30.15 inches Hg (1021.0 mb)
Winds: from the SW (230 degrees) at 5 MPH (4 knots; 2.1 m/s)
Visibility: 6 or more miles (10+ km)
Ceiling: 1100 feet AGL
Clouds: overcast cloud deck at 1100 feet AGL
Weather: no significant weather observed at this time

METAR text: LFBZ 190630Z AUTO 25007KT 210V290 9999 OVC010 10/08 Q1021 BECMG BKN015
Conditions at: LFBZ (BIARRITZ/ANGLET , FR) observed 0630 UTC 19 February 2019
Temperature: 10.0°C (50°F)
Dewpoint: 8.0°C (46°F) [RH = 87%]
Pressure (altimeter): 30.15 inches Hg (1021.0 mb)
Winds: from the WSW (250 degrees) at 8 MPH (7 knots; 3.6 m/s)
Visibility: 6 or more miles (10+ km)
Ceiling: 1000 feet AGL
Clouds: overcast cloud deck at 1000 feet AGL
Weather: no significant weather observed at this time

METAR text: LFBZ 190600Z AUTO 25007KT 200V280 9999 BKN008 OVC015 09/08 Q1021 TEMPO BKN004
Conditions at: LFBZ (BIARRITZ/ANGLET , FR) observed 0600 UTC 19 February 2019
Temperature: 9.0°C (48°F)
Dewpoint: 8.0°C (46°F) [RH = 93%]
Pressure (altimeter): 30.15 inches Hg (1021.0 mb)
Winds: from the WSW (250 degrees) at 8 MPH (7 knots; 3.6 m/s)
Visibility: 6 or more miles (10+ km)
Ceiling: 800 feet AGL
Clouds: broken clouds at 800 feet AGL
overcast cloud deck at 1500 feet AGL
Weather: no significant weather observed at this time

METAR text: LFBZ 190530Z AUTO 25008KT 220V290 9999 OVC005 09/09 Q1021 NOSIG
Conditions at: LFBZ (BIARRITZ/ANGLET , FR) observed 0530 UTC 19 February 2019
Temperature: 9.0°C (48°F)
Dewpoint: 9.0°C (48°F) [RH = 100%]
Pressure (altimeter): 30.15 inches Hg (1021.0 mb)
Winds: from the WSW (250 degrees) at 9 MPH (8 knots; 4.1 m/s)
Visibility: 6 or more miles (10+ km)
Ceiling: 500 feet AGL
Clouds: overcast cloud deck at 500 feet AGL
Weather: no significant weather observed at this time

METAR text: LFBZ 190500Z AUTO 25010KT 200V280 9999 OVC004 09/09 Q1021 TEMPO 4000 BR BECMG BKN015
Conditions at: LFBZ (BIARRITZ/ANGLET , FR) observed 0500 UTC 19 February 2019
Temperature: 9.0°C (48°F)
Dewpoint: 9.0°C (48°F) [RH = 100%]
Pressure (altimeter): 30.15 inches Hg (1021.0 mb)
Winds: from the WSW (250 degrees) at 12 MPH (10 knots; 5.1 m/s)
Visibility: 6 or more miles (10+ km)
Ceiling: 400 feet AGL
Clouds: overcast cloud deck at 400 feet AGL
Weather: no significant weather observed at this time

METAR text: LFBZ 190430Z AUTO 25009KT 200V280 9999 OVC004 09/09 Q1021 TEMPO 4000 BR BECMG BKN015
Conditions at: LFBZ (BIARRITZ/ANGLET , FR) observed 0430 UTC 19 February 2019
Temperature: 9.0°C (48°F)
Dewpoint: 9.0°C (48°F) [RH = 100%]
Pressure (altimeter): 30.15 inches Hg (1021.0 mb)
Winds: from the WSW (250 degrees) at 10 MPH (9 knots; 4.6 m/s)
Visibility: 6 or more miles (10+ km)
Ceiling: 400 feet AGL
Clouds: overcast cloud deck at 400 feet AGL
Weather: no significant weather observed at this time

METAR text: LFBZ 190400Z AUTO 25010KT 220V280 9999 OVC004 10/09 Q1021 TEMPO 4000 BR
Conditions at: LFBZ (BIARRITZ/ANGLET , FR) observed 0400 UTC 19 February 2019
Temperature: 10.0°C (50°F)
Dewpoint: 9.0°C (48°F) [RH = 93%]
Pressure (altimeter): 30.15 inches Hg (1021.0 mb)
Winds: from the WSW (250 degrees) at 12 MPH (10 knots; 5.1 m/s)
Visibility: 6 or more miles (10+ km)
Ceiling: 400 feet AGL
Clouds: overcast cloud deck at 400 feet AGL
Weather: no significant weather observed at this time

METAR text: LFBZ 190330Z AUTO 25007KT 220V290 9999 BKN005 BKN011 OVC016 10/09 Q1021 TEMPO 4000 BR
Conditions at: LFBZ (BIARRITZ/ANGLET , FR) observed 0330 UTC 19 February 2019
Temperature: 10.0°C (50°F)
Dewpoint: 9.0°C (48°F) [RH = 93%]
Pressure (altimeter): 30.15 inches Hg (1021.0 mb)
Winds: from the WSW (250 degrees) at 8 MPH (7 knots; 3.6 m/s)
Visibility: 6 or more miles (10+ km)
Ceiling: 500 feet AGL
Clouds: broken clouds at 500 feet AGL
broken clouds at 1100 feet AGL
overcast cloud deck at 1600 feet AGL
Weather: no significant weather observed at this time

METAR text: LFBZ 190300Z AUTO 23003KT 9999 BKN010 BKN017 BKN028 09/08 Q1021 TEMPO 4000 BR OVC003
Conditions at: LFBZ (BIARRITZ/ANGLET , FR) observed 0300 UTC 19 February 2019
Temperature: 9.0°C (48°F)
Dewpoint: 8.0°C (46°F) [RH = 93%]
Pressure (altimeter): 30.15 inches Hg (1021.0 mb)
Winds: from the SW (230 degrees) at 3 MPH (3 knots; 1.5 m/s)
Visibility: 6 or more miles (10+ km)
Ceiling: 1000 feet AGL
Clouds: broken clouds at 1000 feet AGL
broken clouds at 1700 feet AGL
broken clouds at 2800 feet AGL
Weather: no significant weather observed at this time

METAR text: LFBZ 190230Z AUTO 23004KT 200V260 9999 FEW011 BKN035 09/08 Q1021 TEMPO 4000 BR OVC003
Conditions at: LFBZ (BIARRITZ/ANGLET , FR) observed 0230 UTC 19 February 2019
Temperature: 9.0°C (48°F)
Dewpoint: 8.0°C (46°F) [RH = 93%]
Pressure (altimeter): 30.15 inches Hg (1021.0 mb)
Winds: from the SW (230 degrees) at 5 MPH (4 knots; 2.1 m/s)
Visibility: 6 or more miles (10+ km)
Ceiling: 3500 feet AGL
Clouds: few clouds at 1100 feet AGL
broken clouds at 3500 feet AGL
Weather: no significant weather observed at this time

METAR text: LFBZ 190200Z AUTO 22003KT 9999 FEW011 BKN026 BKN160 09/08 Q1021 TEMPO 4000 BR OVC003
Conditions at: LFBZ (BIARRITZ/ANGLET , FR) observed 0200 UTC 19 February 2019
Temperature: 9.0°C (48°F)
Dewpoint: 8.0°C (46°F) [RH = 93%]
Pressure (altimeter): 30.15 inches Hg (1021.0 mb)
Winds: from the SW (220 degrees) at 3 MPH (3 knots; 1.5 m/s)
Visibility: 6 or more miles (10+ km)
Ceiling: 2600 feet AGL
Clouds: few clouds at 1100 feet AGL
broken clouds at 2600 feet AGL
broken clouds at 16000 feet AGL
Weather: no significant weather observed at this time

METAR text: LFBZ 190130Z AUTO 21002KT 9000 SCT009 BKN015 BKN023 09/08 Q1021 TEMPO 4000 BR OVC003
Conditions at: LFBZ (BIARRITZ/ANGLET , FR) observed 0130 UTC 19 February 2019
Temperature: 9.0°C (48°F)
Dewpoint: 8.0°C (46°F) [RH = 93%]
Pressure (altimeter): 30.15 inches Hg (1021.0 mb)
Winds: from the SSW (210 degrees) at 2 MPH (2 knots; 1.0 m/s)
Visibility: 6 miles ( 9 km)
Ceiling: 1500 feet AGL
Clouds: scattered clouds at 900 feet AGL
broken clouds at 1500 feet AGL
broken clouds at 2300 feet AGL
Weather: no significant weather observed at this time

METAR text: LFBZ 190100Z AUTO 24003KT 210V270 7000 BKN008 BKN014 BKN019 09/09 Q1021 TEMPO 4000 BR OVC003
Conditions at: LFBZ (BIARRITZ/ANGLET , FR) observed 0100 UTC 19 February 2019
Temperature: 9.0°C (48°F)
Dewpoint: 9.0°C (48°F) [RH = 100%]
Pressure (altimeter): 30.15 inches Hg (1021.0 mb)
Winds: from the WSW (240 degrees) at 3 MPH (3 knots; 1.5 m/s)
Visibility: 4 miles ( 7 km)
Ceiling: 800 feet AGL
Clouds: broken clouds at 800 feet AGL
broken clouds at 1400 feet AGL
broken clouds at 1900 feet AGL
Weather: no significant weather observed at this time

METAR text: LFBZ 190030Z AUTO 22003KT 4600 BR FEW003 SCT022 BKN180 09/08 Q1021 TEMPO OVC003
Conditions at: LFBZ (BIARRITZ/ANGLET , FR) observed 0030 UTC 19 February 2019
Temperature: 9.0°C (48°F)
Dewpoint: 8.0°C (46°F) [RH = 93%]
Pressure (altimeter): 30.15 inches Hg (1021.0 mb)
Winds: from the SW (220 degrees) at 3 MPH (3 knots; 1.5 m/s)
Visibility: 2.86 miles (4.60 km)
Ceiling: 18000 feet AGL
Clouds: few clouds at 300 feet AGL
scattered clouds at 2200 feet AGL
broken clouds at 18000 feet AGL
Weather: BR  (mist)

METAR text: LFBZ 190000Z AUTO VRB03KT 3100 BR BKN004 OVC021 10/10 Q1021 NOSIG
Conditions at: LFBZ (BIARRITZ/ANGLET , FR) observed 0000 UTC 19 February 2019
Temperature: 10.0°C (50°F)
Dewpoint: 10.0°C (50°F) [RH = 100%]
Pressure (altimeter): 30.15 inches Hg (1021.0 mb)
Winds: variable direction winds at 3 MPH (3 knots; 1.5 m/s)
Visibility: 1.93 miles (3.11 km)
Ceiling: 400 feet AGL
Clouds: broken clouds at 400 feet AGL
overcast cloud deck at 2100 feet AGL
Weather: BR  (mist)

METAR text: LFBZ 182330Z AUTO VRB02KT 3600 BR FEW006 SCT018 BKN024 10/10 Q1021 TEMPO OVC003
Conditions at: LFBZ (BIARRITZ/ANGLET , FR) observed 2330 UTC 18 February 2019
Temperature: 10.0°C (50°F)
Dewpoint: 10.0°C (50°F) [RH = 100%]
Pressure (altimeter): 30.15 inches Hg (1021.0 mb)
Winds: variable direction winds at 2 MPH (2 knots; 1.0 m/s)
Visibility: 2.24 miles (3.60 km)
Ceiling: 2400 feet AGL
Clouds: few clouds at 600 feet AGL
scattered clouds at 1800 feet AGL
broken clouds at 2400 feet AGL
Weather: BR  (mist)

METAR text: LFBZ 182300Z AUTO 27003KT 4600 BR FEW003 BKN230 10/09 Q1021 TEMPO OVC003
Conditions at: LFBZ (BIARRITZ/ANGLET , FR) observed 2300 UTC 18 February 2019
Temperature: 10.0°C (50°F)
Dewpoint: 9.0°C (48°F) [RH = 93%]
Pressure (altimeter): 30.15 inches Hg (1021.0 mb)
Winds: from the W (270 degrees) at 3 MPH (3 knots; 1.5 m/s)
Visibility: 2.86 miles (4.60 km)
Ceiling: 23000 feet AGL
Clouds: few clouds at 300 feet AGL
broken clouds at 23000 feet AGL
Weather: BR  (mist)

METAR text: LFBZ 182230Z AUTO 25003KT 4100 BR FEW005 BKN025 OVC032 11/10 Q1021 TEMPO OVC003
Conditions at: LFBZ (BIARRITZ/ANGLET , FR) observed 2230 UTC 18 February 2019
Temperature: 11.0°C (52°F)
Dewpoint: 10.0°C (50°F) [RH = 94%]
Pressure (altimeter): 30.15 inches Hg (1021.0 mb)
Winds: from the WSW (250 degrees) at 3 MPH (3 knots; 1.5 m/s)
Visibility: 2.55 miles (4.10 km)
Ceiling: 2500 feet AGL
Clouds: few clouds at 500 feet AGL
broken clouds at 2500 feet AGL
overcast cloud deck at 3200 feet AGL
Weather: BR  (mist)

METAR text: LFBZ 182200Z AUTO VRB02KT 4000 BR BKN005 BKN009 OVC015 11/10 Q1021 NOSIG
Conditions at: LFBZ (BIARRITZ/ANGLET , FR) observed 2200 UTC 18 February 2019
Temperature: 11.0°C (52°F)
Dewpoint: 10.0°C (50°F) [RH = 94%]
Pressure (altimeter): 30.15 inches Hg (1021.0 mb)
Winds: variable direction winds at 2 MPH (2 knots; 1.0 m/s)
Visibility: 2.49 miles (4.01 km)
Ceiling: 500 feet AGL
Clouds: broken clouds at 500 feet AGL
broken clouds at 900 feet AGL
overcast cloud deck at 1500 feet AGL
Weather: BR  (mist)

METAR text: LFBZ 182130Z AUTO 27005KT 6000 FEW006 SCT018 10/10 Q1021 TEMPO 4000 BR BECMG BKN006
Conditions at: LFBZ (BIARRITZ/ANGLET , FR) observed 2130 UTC 18 February 2019
Temperature: 10.0°C (50°F)
Dewpoint: 10.0°C (50°F) [RH = 100%]
Pressure (altimeter): 30.15 inches Hg (1021.0 mb)
Winds: from the W (270 degrees) at 6 MPH (5 knots; 2.6 m/s)
Visibility: 4 miles ( 6 km)
Ceiling: at least 12,000 feet AGL
Clouds: few clouds at 600 feet AGL
scattered clouds at 1800 feet AGL
Weather: no significant weather observed at this time

METAR text: LFBZ 182100Z AUTO 27005KT 230V290 6000 FEW008 BKN014 BKN019 11/10 Q1021 TEMPO 4000 BR BECMG BKN006
Conditions at: LFBZ (BIARRITZ/ANGLET , FR) observed 2100 UTC 18 February 2019
Temperature: 11.0°C (52°F)
Dewpoint: 10.0°C (50°F) [RH = 94%]
Pressure (altimeter): 30.15 inches Hg (1021.0 mb)
Winds: from the W (270 degrees) at 6 MPH (5 knots; 2.6 m/s)
Visibility: 4 miles ( 6 km)
Ceiling: 1400 feet AGL
Clouds: few clouds at 800 feet AGL
broken clouds at 1400 feet AGL
broken clouds at 1900 feet AGL
Weather: no significant weather observed at this time

METAR text: LFBZ 182030Z AUTO 28006KT 6000 BKN009 OVC014 11/10 Q1020 TEMPO 4000 BR
Conditions at: LFBZ (BIARRITZ/ANGLET , FR) observed 2030 UTC 18 February 2019
Temperature: 11.0°C (52°F)
Dewpoint: 10.0°C (50°F) [RH = 94%]
Pressure (altimeter): 30.12 inches Hg (1020.0 mb)
Winds: from the W (280 degrees) at 7 MPH (6 knots; 3.1 m/s)
Visibility: 4 miles ( 6 km)
Ceiling: 900 feet AGL
Clouds: broken clouds at 900 feet AGL
overcast cloud deck at 1400 feet AGL
Weather: no significant weather observed at this time

METAR text: LFBZ 182000Z AUTO 28006KT 7000 BKN006 OVC010 11/10 Q1020 NOSIG
Conditions at: LFBZ (BIARRITZ/ANGLET , FR) observed 2000 UTC 18 February 2019
Temperature: 11.0°C (52°F)
Dewpoint: 10.0°C (50°F) [RH = 94%]
Pressure (altimeter): 30.12 inches Hg (1020.0 mb)
Winds: from the W (280 degrees) at 7 MPH (6 knots; 3.1 m/s)
Visibility: 4 miles ( 7 km)
Ceiling: 600 feet AGL
Clouds: broken clouds at 600 feet AGL
overcast cloud deck at 1000 feet AGL
Weather: no significant weather observed at this time

METAR text: LFBZ 181930Z AUTO 27006KT 5000 BR OVC006 11/10 Q1019 NOSIG
Conditions at: LFBZ (BIARRITZ/ANGLET , FR) observed 1930 UTC 18 February 2019
Temperature: 11.0°C (52°F)
Dewpoint: 10.0°C (50°F) [RH = 94%]
Pressure (altimeter): 30.09 inches Hg (1019.0 mb)
Winds: from the W (270 degrees) at 7 MPH (6 knots; 3.1 m/s)
Visibility: 3 miles ( 5 km)
Ceiling: 600 feet AGL
Clouds: overcast cloud deck at 600 feet AGL
Weather: BR  (mist)

METAR text: LFBZ 181900Z AUTO 29005KT 6000 BKN005 11/11 Q1019 NOSIG
Conditions at: LFBZ (BIARRITZ/ANGLET , FR) observed 1900 UTC 18 February 2019
Temperature: 11.0°C (52°F)
Dewpoint: 11.0°C (52°F) [RH = 100%]
Pressure (altimeter): 30.09 inches Hg (1019.0 mb)
Winds: from the WNW (290 degrees) at 6 MPH (5 knots; 2.6 m/s)
Visibility: 4 miles ( 6 km)
Ceiling: 500 feet AGL
Clouds: broken clouds at 500 feet AGL
Weather: no significant weather observed at this time

METAR text: LFBZ 181830Z AUTO 31003KT 290V350 7000 BKN005 11/10 Q1019 NOSIG
Conditions at: LFBZ (BIARRITZ/ANGLET , FR) observed 1830 UTC 18 February 2019
Temperature: 11.0°C (52°F)
Dewpoint: 10.0°C (50°F) [RH = 94%]
Pressure (altimeter): 30.09 inches Hg (1019.0 mb)
Winds: from the NW (310 degrees) at 3 MPH (3 knots; 1.5 m/s)
Visibility: 4 miles ( 7 km)
Ceiling: 500 feet AGL
Clouds: broken clouds at 500 feet AGL
Weather: no significant weather observed at this time

METAR text: LFBZ 181800Z AUTO 34004KT 310V020 9000 NSC 11/10 Q1018 BECMG BKN005
Conditions at: LFBZ (BIARRITZ/ANGLET , FR) observed 1800 UTC 18 February 2019
Temperature: 11.0°C (52°F)
Dewpoint: 10.0°C (50°F) [RH = 94%]
Pressure (altimeter): 30.06 inches Hg (1018.0 mb)
Winds: from the NNW (340 degrees) at 5 MPH (4 knots; 2.1 m/s)
Visibility: 6 miles ( 9 km)
Ceiling: at least 12,000 feet AGL
Clouds: sky clear below 12,000 feet AGL
Weather: no significant weather observed at this time

METAR text: LFBZ 181730Z AUTO 33005KT 7000 NSC 12/10 Q1018 BECMG BKN005
Conditions at: LFBZ (BIARRITZ/ANGLET , FR) observed 1730 UTC 18 February 2019
Temperature: 12.0°C (54°F)
Dewpoint: 10.0°C (50°F) [RH = 88%]
Pressure (altimeter): 30.06 inches Hg (1018.0 mb)
Winds: from the NNW (330 degrees) at 6 MPH (5 knots; 2.6 m/s)
Visibility: 4 miles ( 7 km)
Ceiling: at least 12,000 feet AGL
Clouds: sky clear below 12,000 feet AGL
Weather: no significant weather observed at this time

METAR text: LFBZ 181700Z AUTO 36008KT CAVOK 12/09 Q1018 BECMG BKN005
Conditions at: LFBZ (BIARRITZ/ANGLET , FR) observed 1700 UTC 18 February 2019
Temperature: 12.0°C (54°F)
Dewpoint: 9.0°C (48°F) [RH = 82%]
Pressure (altimeter): 30.06 inches Hg (1018.0 mb)
Winds: from the N (360 degrees) at 9 MPH (8 knots; 4.1 m/s)
Visibility: 6 or more miles (10+ km)
Ceiling: ceiling and visibility are OK
Clouds: unknown
Weather: no significant weather observed at this time

METAR text: LFBZ 181630Z AUTO 36007KT 340V070 CAVOK 13/09 Q1018 BECMG BKN005
Conditions at: LFBZ (BIARRITZ/ANGLET , FR) observed 1630 UTC 18 February 2019
Temperature: 13.0°C (55°F)
Dewpoint: 9.0°C (48°F) [RH = 77%]
Pressure (altimeter): 30.06 inches Hg (1018.0 mb)
Winds: from the N (360 degrees) at 8 MPH (7 knots; 3.6 m/s)
Visibility: 6 or more miles (10+ km)
Ceiling: ceiling and visibility are OK
Clouds: unknown
Weather: no significant weather observed at this time

METAR text: LFBZ 181600Z AUTO 35008KT 320V020 CAVOK 13/08 Q1018 NOSIG
Conditions at: LFBZ (BIARRITZ/ANGLET , FR) observed 1600 UTC 18 February 2019
Temperature: 13.0°C (55°F)
Dewpoint: 8.0°C (46°F) [RH = 72%]
Pressure (altimeter): 30.06 inches Hg (1018.0 mb)
Winds: from the N (350 degrees) at 9 MPH (8 knots; 4.1 m/s)
Visibility: 6 or more miles (10+ km)
Ceiling: ceiling and visibility are OK
Clouds: unknown
Weather: no significant weather observed at this time

METAR text: LFBZ 181530Z AUTO 36008KT 340V060 CAVOK 14/04 Q1018 NOSIG
Conditions at: LFBZ (BIARRITZ/ANGLET , FR) observed 1530 UTC 18 February 2019
Temperature: 14.0°C (57°F)
Dewpoint: 4.0°C (39°F) [RH = 51%]
Pressure (altimeter): 30.06 inches Hg (1018.0 mb)
Winds: from the N (360 degrees) at 9 MPH (8 knots; 4.1 m/s)
Visibility: 6 or more miles (10+ km)
Ceiling: ceiling and visibility are OK
Clouds: unknown
Weather: no significant weather observed at this time

METAR text: LFBZ 181500Z AUTO 35009KT CAVOK 15/06 Q1018 NOSIG
Conditions at: LFBZ (BIARRITZ/ANGLET , FR) observed 1500 UTC 18 February 2019
Temperature: 15.0°C (59°F)
Dewpoint: 6.0°C (43°F) [RH = 55%]
Pressure (altimeter): 30.06 inches Hg (1018.0 mb)
Winds: from the N (350 degrees) at 10 MPH (9 knots; 4.6 m/s)
Visibility: 6 or more miles (10+ km)
Ceiling: ceiling and visibility are OK
Clouds: unknown
Weather: no significant weather observed at this time

METAR text: LFBZ 181430Z AUTO 35009KT 320V030 CAVOK 15/06 Q1018 NOSIG
Conditions at: LFBZ (BIARRITZ/ANGLET , FR) observed 1430 UTC 18 February 2019
Temperature: 15.0°C (59°F)
Dewpoint: 6.0°C (43°F) [RH = 55%]
Pressure (altimeter): 30.06 inches Hg (1018.0 mb)
Winds: from the N (350 degrees) at 10 MPH (9 knots; 4.6 m/s)
Visibility: 6 or more miles (10+ km)
Ceiling: ceiling and visibility are OK
Clouds: unknown
Weather: no significant weather observed at this time

METAR text: LFBZ 181400Z AUTO 35008KT 320V030 CAVOK 15/06 Q1018 NOSIG
Conditions at: LFBZ (BIARRITZ/ANGLET , FR) observed 1400 UTC 18 February 2019
Temperature: 15.0°C (59°F)
Dewpoint: 6.0°C (43°F) [RH = 55%]
Pressure (altimeter): 30.06 inches Hg (1018.0 mb)
Winds: from the N (350 degrees) at 9 MPH (8 knots; 4.1 m/s)
Visibility: 6 or more miles (10+ km)
Ceiling: ceiling and visibility are OK
Clouds: unknown
Weather: no significant weather observed at this time

METAR text: LFBZ 181330Z AUTO 35008KT 320V030 CAVOK 15/07 Q1018 NOSIG
Conditions at: LFBZ (BIARRITZ/ANGLET , FR) observed 1330 UTC 18 February 2019
Temperature: 15.0°C (59°F)
Dewpoint: 7.0°C (45°F) [RH = 59%]
Pressure (altimeter): 30.06 inches Hg (1018.0 mb)
Winds: from the N (350 degrees) at 9 MPH (8 knots; 4.1 m/s)
Visibility: 6 or more miles (10+ km)
Ceiling: ceiling and visibility are OK
Clouds: unknown
Weather: no significant weather observed at this time

METAR text: LFBZ 181300Z AUTO 36007KT 320V040 CAVOK 15/06 Q1018 NOSIG
Conditions at: LFBZ (BIARRITZ/ANGLET , FR) observed 1300 UTC 18 February 2019
Temperature: 15.0°C (59°F)
Dewpoint: 6.0°C (43°F) [RH = 55%]
Pressure (altimeter): 30.06 inches Hg (1018.0 mb)
Winds: from the N (360 degrees) at 8 MPH (7 knots; 3.6 m/s)
Visibility: 6 or more miles (10+ km)
Ceiling: ceiling and visibility are OK
Clouds: unknown
Weather: no significant weather observed at this time

METAR text: LFBZ 181230Z AUTO 36006KT 320V080 CAVOK 15/07 Q1019 NOSIG
Conditions at: LFBZ (BIARRITZ/ANGLET , FR) observed 1230 UTC 18 February 2019
Temperature: 15.0°C (59°F)
Dewpoint: 7.0°C (45°F) [RH = 59%]
Pressure (altimeter): 30.09 inches Hg (1019.0 mb)
Winds: from the N (360 degrees) at 7 MPH (6 knots; 3.1 m/s)
Visibility: 6 or more miles (10+ km)
Ceiling: ceiling and visibility are OK
Clouds: unknown
Weather: no significant weather observed at this time

METAR text: LFBZ 181200Z AUTO 35005KT 310V070 CAVOK 14/07 Q1019 NOSIG
Conditions at: LFBZ (BIARRITZ/ANGLET , FR) observed 1200 UTC 18 February 2019
Temperature: 14.0°C (57°F)
Dewpoint: 7.0°C (45°F) [RH = 63%]
Pressure (altimeter): 30.09 inches Hg (1019.0 mb)
Winds: from the N (350 degrees) at 6 MPH (5 knots; 2.6 m/s)
Visibility: 6 or more miles (10+ km)
Ceiling: ceiling and visibility are OK
Clouds: unknown
Weather: no significant weather observed at this time

METAR text: LFBZ 181130Z AUTO 36006KT 320V030 CAVOK 14/07 Q1019 NOSIG
Conditions at: LFBZ (BIARRITZ/ANGLET , FR) observed 1130 UTC 18 February 2019
Temperature: 14.0°C (57°F)
Dewpoint: 7.0°C (45°F) [RH = 63%]
Pressure (altimeter): 30.09 inches Hg (1019.0 mb)
Winds: from the N (360 degrees) at 7 MPH (6 knots; 3.1 m/s)
Visibility: 6 or more miles (10+ km)
Ceiling: ceiling and visibility are OK
Clouds: unknown
Weather: no significant weather observed at this time

METAR text: LFBZ 181100Z AUTO 02006KT 340V070 CAVOK 14/07 Q1019 TEMPO BKN014
Conditions at: LFBZ (BIARRITZ/ANGLET , FR) observed 1100 UTC 18 February 2019
Temperature: 14.0°C (57°F)
Dewpoint: 7.0°C (45°F) [RH = 63%]
Pressure (altimeter): 30.09 inches Hg (1019.0 mb)
Winds: from the NNE (20 degrees) at 7 MPH (6 knots; 3.1 m/s)
Visibility: 6 or more miles (10+ km)
Ceiling: ceiling and visibility are OK
Clouds: unknown
Weather: no significant weather observed at this time

METAR text: LFBZ 181030Z AUTO 05005KT 350V070 CAVOK 14/06 Q1019 TEMPO BKN014
Conditions at: LFBZ (BIARRITZ/ANGLET , FR) observed 1030 UTC 18 February 2019
Temperature: 14.0°C (57°F)
Dewpoint: 6.0°C (43°F) [RH = 58%]
Pressure (altimeter): 30.09 inches Hg (1019.0 mb)
Winds: from the NE (50 degrees) at 6 MPH (5 knots; 2.6 m/s)
Visibility: 6 or more miles (10+ km)
Ceiling: ceiling and visibility are OK
Clouds: unknown
Weather: no significant weather observed at this time

METAR text: LFBZ 181000Z AUTO 04004KT 340V080 CAVOK 16/M01 Q1019 TEMPO BKN014
Conditions at: LFBZ (BIARRITZ/ANGLET , FR) observed 1000 UTC 18 February 2019
Temperature: 16.0°C (61°F)
Dewpoint: -1.0°C (30°F) [RH = 31%]
Pressure (altimeter): 30.09 inches Hg (1019.0 mb)
Winds: from the NE (40 degrees) at 5 MPH (4 knots; 2.1 m/s)
Visibility: 6 or more miles (10+ km)
Ceiling: ceiling and visibility are OK
Clouds: unknown
Weather: no significant weather observed at this time

METAR text: LFBZ 180930Z AUTO 35003KT 320V030 CAVOK 15/M00 Q1019 TEMPO BKN014
Conditions at: LFBZ (BIARRITZ/ANGLET , FR) observed 0930 UTC 18 February 2019
Temperature: 15.0°C (59°F)
Dewpoint: 0.0°C (32°F) [RH = 36%]
Pressure (altimeter): 30.09 inches Hg (1019.0 mb)
Winds: from the N (350 degrees) at 3 MPH (3 knots; 1.5 m/s)
Visibility: 6 or more miles (10+ km)
Ceiling: ceiling and visibility are OK
Clouds: unknown
Weather: no significant weather observed at this time

METAR text: LFBZ 180900Z AUTO 17003KT 110V260 CAVOK 15/M02 Q1019 NOSIG
Conditions at: LFBZ (BIARRITZ/ANGLET , FR) observed 0900 UTC 18 February 2019
Temperature: 15.0°C (59°F)
Dewpoint: -2.0°C (28°F) [RH = 31%]
Pressure (altimeter): 30.09 inches Hg (1019.0 mb)
Winds: from the S (170 degrees) at 3 MPH (3 knots; 1.5 m/s)
Visibility: 6 or more miles (10+ km)
Ceiling: ceiling and visibility are OK
Clouds: unknown
Weather: no significant weather observed at this time

METAR text: LFBZ 180830Z AUTO VRB03KT CAVOK 13/M02 Q1018 NOSIG
Conditions at: LFBZ (BIARRITZ/ANGLET , FR) observed 0830 UTC 18 February 2019
Temperature: 13.0°C (55°F)
Dewpoint: -2.0°C (28°F) [RH = 35%]
Pressure (altimeter): 30.06 inches Hg (1018.0 mb)
Winds: variable direction winds at 3 MPH (3 knots; 1.5 m/s)
Visibility: 6 or more miles (10+ km)
Ceiling: ceiling and visibility are OK
Clouds: unknown
Weather: no significant weather observed at this time

METAR text: LFBZ 180800Z AUTO 18004KT 140V240 CAVOK 12/M02 Q1018 NOSIG
Conditions at: LFBZ (BIARRITZ/ANGLET , FR) observed 0800 UTC 18 February 2019
Temperature: 12.0°C (54°F)
Dewpoint: -2.0°C (28°F) [RH = 38%]
Pressure (altimeter): 30.06 inches Hg (1018.0 mb)
Winds: from the S (180 degrees) at 5 MPH (4 knots; 2.1 m/s)
Visibility: 6 or more miles (10+ km)
Ceiling: ceiling and visibility are OK
Clouds: unknown
Weather: no significant weather observed at this time

METAR text: LFBZ 180730Z AUTO VRB03KT CAVOK 10/M02 Q1018 NOSIG
Conditions at: LFBZ (BIARRITZ/ANGLET , FR) observed 0730 UTC 18 February 2019
Temperature: 10.0°C (50°F)
Dewpoint: -2.0°C (28°F) [RH = 43%]
Pressure (altimeter): 30.06 inches Hg (1018.0 mb)
Winds: variable direction winds at 3 MPH (3 knots; 1.5 m/s)
Visibility: 6 or more miles (10+ km)
Ceiling: ceiling and visibility are OK
Clouds: unknown
Weather: no significant weather observed at this time

METAR text: LFBZ 180700Z AUTO 25004KT 220V280 CAVOK 11/M03 Q1018 NOSIG
Conditions at: LFBZ (BIARRITZ/ANGLET , FR) observed 0700 UTC 18 February 2019
Temperature: 11.0°C (52°F)
Dewpoint: -3.0°C (27°F) [RH = 37%]
Pressure (altimeter): 30.06 inches Hg (1018.0 mb)
Winds: from the WSW (250 degrees) at 5 MPH (4 knots; 2.1 m/s)
Visibility: 6 or more miles (10+ km)
Ceiling: ceiling and visibility are OK
Clouds: unknown
Weather: no significant weather observed at this time

METAR text: LFBZ 180630Z AUTO 28006KT CAVOK 11/M03 Q1018 NOSIG
Conditions at: LFBZ (BIARRITZ/ANGLET , FR) observed 0630 UTC 18 February 2019
Temperature: 11.0°C (52°F)
Dewpoint: -3.0°C (27°F) [RH = 37%]
Pressure (altimeter): 30.06 inches Hg (1018.0 mb)
Winds: from the W (280 degrees) at 7 MPH (6 knots; 3.1 m/s)
Visibility: 6 or more miles (10+ km)
Ceiling: ceiling and visibility are OK
Clouds: unknown
Weather: no significant weather observed at this time

METAR text: LFBZ 180600Z AUTO 33003KT 260V010 CAVOK 12/M02 Q1018 NOSIG
Conditions at: LFBZ (BIARRITZ/ANGLET , FR) observed 0600 UTC 18 February 2019
Temperature: 12.0°C (54°F)
Dewpoint: -2.0°C (28°F) [RH = 38%]
Pressure (altimeter): 30.06 inches Hg (1018.0 mb)
Winds: from the NNW (330 degrees) at 3 MPH (3 knots; 1.5 m/s)
Visibility: 6 or more miles (10+ km)
Ceiling: ceiling and visibility are OK
Clouds: unknown
Weather: no significant weather observed at this time

METAR text: LFBZ 180530Z AUTO VRB03KT CAVOK 14/M04 Q1018 NOSIG
Conditions at: LFBZ (BIARRITZ/ANGLET , FR) observed 0530 UTC 18 February 2019
Temperature: 14.0°C (57°F)
Dewpoint: -4.0°C (25°F) [RH = 28%]
Pressure (altimeter): 30.06 inches Hg (1018.0 mb)
Winds: variable direction winds at 3 MPH (3 knots; 1.5 m/s)
Visibility: 6 or more miles (10+ km)
Ceiling: ceiling and visibility are OK
Clouds: unknown
Weather: no significant weather observed at this time

METAR text: LFBZ 180500Z AUTO VRB02KT CAVOK 14/M03 Q1017 NOSIG
Conditions at: LFBZ (BIARRITZ/ANGLET , FR) observed 0500 UTC 18 February 2019
Temperature: 14.0°C (57°F)
Dewpoint: -3.0°C (27°F) [RH = 31%]
Pressure (altimeter): 30.03 inches Hg (1017.0 mb)
Winds: variable direction winds at 2 MPH (2 knots; 1.0 m/s)
Visibility: 6 or more miles (10+ km)
Ceiling: ceiling and visibility are OK
Clouds: unknown
Weather: no significant weather observed at this time

METAR text: LFBZ 180430Z AUTO 22005KT 140V260 CAVOK 12/M02 Q1017 NOSIG
Conditions at: LFBZ (BIARRITZ/ANGLET , FR) observed 0430 UTC 18 February 2019
Temperature: 12.0°C (54°F)
Dewpoint: -2.0°C (28°F) [RH = 38%]
Pressure (altimeter): 30.03 inches Hg (1017.0 mb)
Winds: from the SW (220 degrees) at 6 MPH (5 knots; 2.6 m/s)
Visibility: 6 or more miles (10+ km)
Ceiling: ceiling and visibility are OK
Clouds: unknown
Weather: no significant weather observed at this time

METAR text: LFBZ 180400Z AUTO 24005KT 220V290 CAVOK 11/M03 Q1017 NOSIG
Conditions at: LFBZ (BIARRITZ/ANGLET , FR) observed 0400 UTC 18 February 2019
Temperature: 11.0°C (52°F)
Dewpoint: -3.0°C (27°F) [RH = 37%]
Pressure (altimeter): 30.03 inches Hg (1017.0 mb)
Winds: from the WSW (240 degrees) at 6 MPH (5 knots; 2.6 m/s)
Visibility: 6 or more miles (10+ km)
Ceiling: ceiling and visibility are OK
Clouds: unknown
Weather: no significant weather observed at this time

METAR text: LFBZ 180330Z AUTO 20005KT 160V230 CAVOK 10/M01 Q1017 NOSIG
Conditions at: LFBZ (BIARRITZ/ANGLET , FR) observed 0330 UTC 18 February 2019
Temperature: 10.0°C (50°F)
Dewpoint: -1.0°C (30°F) [RH = 46%]
Pressure (altimeter): 30.03 inches Hg (1017.0 mb)
Winds: from the SSW (200 degrees) at 6 MPH (5 knots; 2.6 m/s)
Visibility: 6 or more miles (10+ km)
Ceiling: ceiling and visibility are OK
Clouds: unknown
Weather: no significant weather observed at this time

METAR text: LFBZ 180300Z AUTO 15006KT 9999 NSC 11/M00 Q1017 NOSIG
Conditions at: LFBZ (BIARRITZ/ANGLET , FR) observed 0300 UTC 18 February 2019
Temperature: 11.0°C (52°F)
Dewpoint: 0.0°C (32°F) [RH = 47%]
Pressure (altimeter): 30.03 inches Hg (1017.0 mb)
Winds: from the SSE (150 degrees) at 7 MPH (6 knots; 3.1 m/s)
Visibility: 6 or more miles (10+ km)
Ceiling: at least 12,000 feet AGL
Clouds: sky clear below 12,000 feet AGL
Weather: no significant weather observed at this time

METAR text: LFBZ 180230Z AUTO VRB03KT CAVOK 14/M04 Q1018 NOSIG
Conditions at: LFBZ (BIARRITZ/ANGLET , FR) observed 0230 UTC 18 February 2019
Temperature: 14.0°C (57°F)
Dewpoint: -4.0°C (25°F) [RH = 28%]
Pressure (altimeter): 30.06 inches Hg (1018.0 mb)
Winds: variable direction winds at 3 MPH (3 knots; 1.5 m/s)
Visibility: 6 or more miles (10+ km)
Ceiling: ceiling and visibility are OK
Clouds: unknown
Weather: no significant weather observed at this time

METAR text: LFBZ 180200Z AUTO 28005KT 220V310 CAVOK 15/M05 Q1018 NOSIG
Conditions at: LFBZ (BIARRITZ/ANGLET , FR) observed 0200 UTC 18 February 2019
Temperature: 15.0°C (59°F)
Dewpoint: -5.0°C (23°F) [RH = 25%]
Pressure (altimeter): 30.06 inches Hg (1018.0 mb)
Winds: from the W (280 degrees) at 6 MPH (5 knots; 2.6 m/s)
Visibility: 6 or more miles (10+ km)
Ceiling: ceiling and visibility are OK
Clouds: unknown
Weather: no significant weather observed at this time

METAR text: LFBZ 180130Z AUTO VRB03KT CAVOK 12/M03 Q1018 NOSIG
Conditions at: LFBZ (BIARRITZ/ANGLET , FR) observed 0130 UTC 18 February 2019
Temperature: 12.0°C (54°F)
Dewpoint: -3.0°C (27°F) [RH = 35%]
Pressure (altimeter): 30.06 inches Hg (1018.0 mb)
Winds: variable direction winds at 3 MPH (3 knots; 1.5 m/s)
Visibility: 6 or more miles (10+ km)
Ceiling: ceiling and visibility are OK
Clouds: unknown
Weather: no significant weather observed at this time

METAR text: LFBZ 180100Z AUTO 03003KT 360V070 CAVOK 09/04 Q1018 TEMPO 18010G20KT
Conditions at: LFBZ (BIARRITZ/ANGLET , FR) observed 0100 UTC 18 February 2019
Temperature: 9.0°C (48°F)
Dewpoint: 4.0°C (39°F) [RH = 71%]
Pressure (altimeter): 30.06 inches Hg (1018.0 mb)
Winds: from the NNE (30 degrees) at 3 MPH (3 knots; 1.5 m/s)
Visibility: 6 or more miles (10+ km)
Ceiling: ceiling and visibility are OK
Clouds: unknown
Weather: no significant weather observed at this time

METAR text: LFBZ 180030Z AUTO 07006KT 040V100 CAVOK 10/05 Q1018 TEMPO 18010G20KT
Conditions at: LFBZ (BIARRITZ/ANGLET , FR) observed 0030 UTC 18 February 2019
Temperature: 10.0°C (50°F)
Dewpoint: 5.0°C (41°F) [RH = 71%]
Pressure (altimeter): 30.06 inches Hg (1018.0 mb)
Winds: from the ENE (70 degrees) at 7 MPH (6 knots; 3.1 m/s)
Visibility: 6 or more miles (10+ km)
Ceiling: ceiling and visibility are OK
Clouds: unknown
Weather: no significant weather observed at this time

METAR text: LFBZ 180000Z AUTO VRB03KT CAVOK 10/06 Q1018 NOSIG
Conditions at: LFBZ (BIARRITZ/ANGLET , FR) observed 0000 UTC 18 February 2019
Temperature: 10.0°C (50°F)
Dewpoint: 6.0°C (43°F) [RH = 76%]
Pressure (altimeter): 30.06 inches Hg (1018.0 mb)
Winds: variable direction winds at 3 MPH (3 knots; 1.5 m/s)
Visibility: 6 or more miles (10+ km)
Ceiling: ceiling and visibility are OK
Clouds: unknown
Weather: no significant weather observed at this time

Forecast for: LFBZ (BIARRITZ/ANGLET , FR)
Text: TAF LFBZ 191100Z 1912/2012 27008KT 9999 SCT010
Forecast period: 1200 UTC 19 February 2019 to 1200 UTC 20 February 2019
Forecast type: FROM: standard forecast or significant change
Winds: from the W (270 degrees) at 9 MPH (8 knots; 4.1 m/s)
Visibility: 6 or more miles 10+ km)
Ceiling: at least 12,000 feet AGL
Clouds: scattered clouds at 1000 feet AGL
Weather: no significant weather forecast for this period
Text: BECMG 1912/1914 35005KT CAVOK
Forecast period: 1200 to 1900 UTC 19 February 2019
Forecast type: BECOMING: Conditions expected to become as follows by 1400 UTC 19 February 2019
Winds: from the N (350 degrees) at 6 MPH (5 knots; 2.6 m/s)
Visibility: 6 or more miles 10+ km)
Ceiling: unknown
Clouds: missing
Weather: NSW  (no significant weather)
Text: BECMG 1919/1921 10005KT
Forecast period: 1900 UTC 19 February 2019 to 1200 UTC 20 February 2019
Forecast type: BECOMING: Conditions expected to become as follows by 2100 UTC 19 February 2019
Winds: from the E (100 degrees) at 6 MPH (5 knots; 2.6 m/s)
Visibility: 6 or more miles 10+ km)
Ceiling: unknown
Clouds: missing
Weather: NSW  (no significant weather)